sensor_id;sensor_type;location;lat;lon;timestamp;pressure;altitude;pressure_sealevel;temperature;humidity
63654;BME280;49809;47.418;19.080;2023-09-30T00:02:25;101019.69;;;12.51;100.00
63654;BME280;49809;47.418;19.080;2023-09-30T00:06:24;101011.47;;;12.52;100.00
63654;BME280;49809;47.418;19.080;2023-09-30T00:09:46;101012.44;;;12.46;100.00
63654;BME280;49809;47.418;19.080;2023-09-30T00:13:26;101010.31;;;12.43;100.00
63654;BME280;49809;47.418;19.080;2023-09-30T00:16:58;101012.44;;;12.46;100.00
63654;BME280;49809;47.418;19.080;2023-09-30T00:20:41;101016.34;;;12.39;100.00
63654;BME280;49809;47.418;19.080;2023-09-30T00:24:09;101005.38;;;12.35;100.00
63654;BME280;49809;47.418;19.080;2023-09-30T00:27:34;101007.25;;;12.35;100.00
63654;BME280;49809;47.418;19.080;2023-09-30T00:30:37;101001.41;;;12.33;100.00
63654;BME280;49809;47.418;19.080;2023-09-30T00:34:26;101006.41;;;12.29;100.00
63654;BME280;49809;47.418;19.080;2023-09-30T00:38:00;101001.81;;;12.25;100.00
63654;BME280;49809;47.418;19.080;2023-09-30T00:41:24;100990.94;;;12.26;100.00
63654;BME280;49809;47.418;19.080;2023-09-30T00:44:44;100986.13;;;12.23;100.00
63654;BME280;49809;47.418;19.080;2023-09-30T00:48:12;100988.56;;;12.25;100.00
63654;BME280;49809;47.418;19.080;2023-09-30T00:51:38;100982.09;;;12.20;100.00
63654;BME280;49809;47.418;19.080;2023-09-30T00:54:43;100988.22;;;12.21;100.00
63654;BME280;49809;47.418;19.080;2023-09-30T00:58:09;100984.28;;;12.24;100.00
63654;BME280;49809;47.418;19.080;2023-09-30T01:01:45;100984.53;;;12.22;100.00
63654;BME280;49809;47.418;19.080;2023-09-30T01:04:50;100985.91;;;12.25;100.00
63654;BME280;49809;47.418;19.080;2023-09-30T01:08:35;100982.91;;;12.21;100.00
63654;BME280;49809;47.418;19.080;2023-09-30T01:11:40;100980.19;;;12.16;100.00
63654;BME280;49809;47.418;19.080;2023-09-30T01:15:06;100986.00;;;12.13;100.00
63654;BME280;49809;47.418;19.080;2023-09-30T01:18:30;100979.00;;;12.07;100.00
63654;BME280;49809;47.418;19.080;2023-09-30T01:21:58;100980.59;;;12.08;100.00
63654;BME280;49809;47.418;19.080;2023-09-30T01:25:12;100980.53;;;12.03;100.00
63654;BME280;49809;47.418;19.080;2023-09-30T01:28:59;100990.59;;;12.01;100.00
63654;BME280;49809;47.418;19.080;2023-09-30T01:32:07;100983.34;;;11.96;100.00
63654;BME280;49809;47.418;19.080;2023-09-30T01:35:34;100976.69;;;11.94;100.00
63654;BME280;49809;47.418;19.080;2023-09-30T01:39:00;100984.88;;;11.92;100.00
63654;BME280;49809;47.418;19.080;2023-09-30T01:42:09;100980.88;;;11.90;100.00
63654;BME280;49809;47.418;19.080;2023-09-30T01:45:35;100977.66;;;11.88;100.00
63654;BME280;49809;47.418;19.080;2023-09-30T01:49:09;100972.84;;;11.85;100.00
63654;BME280;49809;47.418;19.080;2023-09-30T01:52:33;100974.47;;;11.86;100.00
63654;BME280;49809;47.418;19.080;2023-09-30T01:55:59;100974.94;;;11.83;100.00
63654;BME280;49809;47.418;19.080;2023-09-30T01:59:04;100970.75;;;11.87;100.00
63654;BME280;49809;47.418;19.080;2023-09-30T02:02:28;100975.75;;;11.83;100.00
63654;BME280;49809;47.418;19.080;2023-09-30T02:05:52;100979.94;;;11.79;100.00
63654;BME280;49809;47.418;19.080;2023-09-30T02:09:35;100978.63;;;11.82;100.00
63654;BME280;49809;47.418;19.080;2023-09-30T02:12:43;100974.31;;;11.75;100.00
63654;BME280;49809;47.418;19.080;2023-09-30T02:16:11;100966.81;;;11.72;100.00
63654;BME280;49809;47.418;19.080;2023-09-30T02:19:19;100963.13;;;11.73;100.00
63654;BME280;49809;47.418;19.080;2023-09-30T02:22:23;100963.59;;;11.70;100.00
63654;BME280;49809;47.418;19.080;2023-09-30T02:25:32;100963.81;;;11.69;100.00
63654;BME280;49809;47.418;19.080;2023-09-30T02:29:04;100973.94;;;11.72;100.00
63654;BME280;49809;47.418;19.080;2023-09-30T02:32:32;100969.72;;;11.71;100.00
63654;BME280;49809;47.418;19.080;2023-09-30T02:35:46;100964.88;;;11.68;100.00
63654;BME280;49809;47.418;19.080;2023-09-30T02:38:57;100967.50;;;11.68;100.00
63654;BME280;49809;47.418;19.080;2023-09-30T02:42:07;100960.28;;;11.63;100.00
63654;BME280;49809;47.418;19.080;2023-09-30T02:45:12;100954.97;;;11.63;100.00
63654;BME280;49809;47.418;19.080;2023-09-30T02:48:16;100963.97;;;11.62;100.00
63654;BME280;49809;47.418;19.080;2023-09-30T02:51:30;100965.59;;;11.63;100.00
63654;BME280;49809;47.418;19.080;2023-09-30T02:54:58;100966.41;;;11.64;100.00
63654;BME280;49809;47.418;19.080;2023-09-30T02:58:04;100980.38;;;11.59;100.00
63654;BME280;49809;47.418;19.080;2023-09-30T03:01:07;100964.97;;;11.56;100.00
63654;BME280;49809;47.418;19.080;2023-09-30T03:04:37;100975.22;;;11.53;100.00
63654;BME280;49809;47.418;19.080;2023-09-30T03:08:05;100969.59;;;11.49;100.00
63654;BME280;49809;47.418;19.080;2023-09-30T03:11:40;100974.09;;;11.49;100.00
63654;BME280;49809;47.418;19.080;2023-09-30T03:15:18;100971.12;;;11.45;100.00
63654;BME280;49809;47.418;19.080;2023-09-30T03:18:22;100977.97;;;11.41;100.00
63654;BME280;49809;47.418;19.080;2023-09-30T03:21:29;100978.78;;;11.42;100.00
63654;BME280;49809;47.418;19.080;2023-09-30T03:24:35;100974.75;;;11.39;100.00
63654;BME280;49809;47.418;19.080;2023-09-30T03:28:19;100977.62;;;11.38;100.00
63654;BME280;49809;47.418;19.080;2023-09-30T03:31:24;100984.22;;;11.35;100.00
63654;BME280;49809;47.418;19.080;2023-09-30T03:35:10;100980.22;;;11.32;100.00
63654;BME280;49809;47.418;19.080;2023-09-30T03:38:55;100981.47;;;11.30;100.00
63654;BME280;49809;47.418;19.080;2023-09-30T03:42:00;100983.00;;;11.26;100.00
63654;BME280;49809;47.418;19.080;2023-09-30T03:45:08;100982.44;;;11.24;100.00
63654;BME280;49809;47.418;19.080;2023-09-30T03:48:17;100974.97;;;11.21;100.00
63654;BME280;49809;47.418;19.080;2023-09-30T03:52:04;100984.53;;;11.22;100.00
63654;BME280;49809;47.418;19.080;2023-09-30T03:55:28;100987.91;;;11.17;100.00
63654;BME280;49809;47.418;19.080;2023-09-30T03:59:00;100976.94;;;11.14;100.00
63654;BME280;49809;47.418;19.080;2023-09-30T04:02:24;100981.47;;;11.13;100.00
63654;BME280;49809;47.418;19.080;2023-09-30T04:05:28;100983.78;;;11.10;100.00
63654;BME280;49809;47.418;19.080;2023-09-30T04:08:54;100971.00;;;11.07;100.00
63654;BME280;49809;47.418;19.080;2023-09-30T04:11:59;100979.06;;;11.12;100.00
63654;BME280;49809;47.418;19.080;2023-09-30T04:15:10;100977.34;;;11.06;100.00
63654;BME280;49809;47.418;19.080;2023-09-30T04:18:41;100976.00;;;11.03;100.00
63654;BME280;49809;47.418;19.080;2023-09-30T04:22:25;100976.00;;;11.03;100.00
63654;BME280;49809;47.418;19.080;2023-09-30T04:25:36;100975.63;;;11.00;100.00
63654;BME280;49809;47.418;19.080;2023-09-30T04:28:59;100979.91;;;11.01;100.00
63654;BME280;49809;47.418;19.080;2023-09-30T04:32:10;100982.44;;;10.96;100.00
63654;BME280;49809;47.418;19.080;2023-09-30T04:35:13;100984.66;;;10.99;100.00
63654;BME280;49809;47.418;19.080;2023-09-30T04:39:06;100995.56;;;11.02;100.00
63654;BME280;49809;47.418;19.080;2023-09-30T04:42:34;100994.19;;;11.00;100.00
63654;BME280;49809;47.418;19.080;2023-09-30T04:46:00;101003.25;;;11.04;100.00
63654;BME280;49809;47.418;19.080;2023-09-30T04:49:24;101002.72;;;11.02;100.00
63654;BME280;49809;47.418;19.080;2023-09-30T04:52:28;101010.66;;;11.02;100.00
63654;BME280;49809;47.418;19.080;2023-09-30T04:55:55;101004.88;;;11.05;100.00
63654;BME280;49809;47.418;19.080;2023-09-30T04:59:02;101000.38;;;11.05;100.00
63654;BME280;49809;47.418;19.080;2023-09-30T05:02:09;101004.16;;;11.09;100.00
63654;BME280;49809;47.418;19.080;2023-09-30T05:05:45;101009.22;;;11.11;100.00
63654;BME280;49809;47.418;19.080;2023-09-30T05:09:21;101007.25;;;11.18;100.00
63654;BME280;49809;47.418;19.080;2023-09-30T05:12:24;101013.78;;;11.27;100.00
63654;BME280;49809;47.418;19.080;2023-09-30T05:15:32;101010.78;;;11.23;100.00
63654;BME280;49809;47.418;19.080;2023-09-30T05:18:47;101016.03;;;11.35;100.00
63654;BME280;49809;47.418;19.080;2023-09-30T05:21:51;101021.72;;;11.44;100.00
63654;BME280;49809;47.418;19.080;2023-09-30T05:25:19;101021.69;;;11.55;100.00
63654;BME280;49809;47.418;19.080;2023-09-30T05:28:24;101021.84;;;11.65;100.00
63654;BME280;49809;47.418;19.080;2023-09-30T05:31:53;101017.38;;;11.83;100.00
63654;BME280;49809;47.418;19.080;2023-09-30T05:35:40;101023.16;;;11.96;100.00
63654;BME280;49809;47.418;19.080;2023-09-30T05:39:13;101027.41;;;12.14;100.00
63654;BME280;49809;47.418;19.080;2023-09-30T05:43:05;101028.25;;;12.36;100.00
63654;BME280;49809;47.418;19.080;2023-09-30T05:46:32;101035.97;;;12.59;100.00
63654;BME280;49809;47.418;19.080;2023-09-30T05:49:49;101031.50;;;12.82;100.00
63654;BME280;49809;47.418;19.080;2023-09-30T05:56:51;101034.66;;;13.27;100.00
63654;BME280;49809;47.418;19.080;2023-09-30T06:00:16;101038.75;;;13.67;100.00
63654;BME280;49809;47.418;19.080;2023-09-30T06:04:01;101039.00;;;13.97;100.00
63654;BME280;49809;47.418;19.080;2023-09-30T06:07:26;101039.50;;;14.31;100.00
63654;BME280;49809;47.418;19.080;2023-09-30T06:10:34;101038.97;;;14.81;100.00
63654;BME280;49809;47.418;19.080;2023-09-30T06:13:45;101042.81;;;15.31;100.00
63654;BME280;49809;47.418;19.080;2023-09-30T06:17:21;101042.34;;;15.84;96.37
63654;BME280;49809;47.418;19.080;2023-09-30T06:20:45;101037.75;;;16.40;88.06
63654;BME280;49809;47.418;19.080;2023-09-30T06:23:55;101041.44;;;17.14;84.30
63654;BME280;49809;47.418;19.080;2023-09-30T06:26:59;101048.09;;;17.65;81.63
63654;BME280;49809;47.418;19.080;2023-09-30T06:30:25;101046.94;;;18.34;79.60
63654;BME280;49809;47.418;19.080;2023-09-30T06:33:54;101041.75;;;19.09;75.23
63654;BME280;49809;47.418;19.080;2023-09-30T06:37:04;101040.78;;;19.00;73.73
63654;BME280;49809;47.418;19.080;2023-09-30T06:40:27;101038.09;;;19.75;72.25
63654;BME280;49809;47.418;19.080;2023-09-30T06:43:32;101039.06;;;20.11;71.31
63654;BME280;49809;47.418;19.080;2023-09-30T06:46:38;101040.37;;;20.27;69.29
63654;BME280;49809;47.418;19.080;2023-09-30T06:50:14;101043.09;;;20.68;67.78
63654;BME280;49809;47.418;19.080;2023-09-30T06:53:46;101041.03;;;21.01;64.72
63654;BME280;49809;47.418;19.080;2023-09-30T06:57:20;101044.97;;;21.31;64.92
63654;BME280;49809;47.418;19.080;2023-09-30T07:00:53;101045.75;;;20.96;66.60
63654;BME280;49809;47.418;19.080;2023-09-30T07:04:31;101045.06;;;20.90;67.65
63654;BME280;49809;47.418;19.080;2023-09-30T07:12:16;101056.38;;;20.37;69.65
63654;BME280;49809;47.418;19.080;2023-09-30T07:15:47;101049.12;;;20.19;70.84
63654;BME280;49809;47.418;19.080;2023-09-30T07:19:23;101050.28;;;20.00;71.06
63654;BME280;49809;47.418;19.080;2023-09-30T07:23:05;101053.03;;;19.81;71.91
63654;BME280;49809;47.418;19.080;2023-09-30T07:26:37;101060.06;;;19.77;72.37
63654;BME280;49809;47.418;19.080;2023-09-30T07:30:05;101059.03;;;19.40;72.30
63654;BME280;49809;47.418;19.080;2023-09-30T07:33:41;101057.56;;;19.67;72.19
63654;BME280;49809;47.418;19.080;2023-09-30T07:37:11;101060.75;;;19.69;72.17
63654;BME280;49809;47.418;19.080;2023-09-30T07:40:38;101062.28;;;19.75;71.99
63654;BME280;49809;47.418;19.080;2023-09-30T07:44:11;101073.34;;;19.55;74.24
63654;BME280;49809;47.418;19.080;2023-09-30T07:47:54;101072.66;;;19.63;74.77
63654;BME280;49809;47.418;19.080;2023-09-30T07:50:59;101075.91;;;19.78;74.25
63654;BME280;49809;47.418;19.080;2023-09-30T07:54:42;101082.25;;;19.31;73.10
63654;BME280;49809;47.418;19.080;2023-09-30T07:58:19;101078.47;;;19.70;72.62
63654;BME280;49809;47.418;19.080;2023-09-30T08:05:48;101078.09;;;20.09;69.95
63654;BME280;49809;47.418;19.080;2023-09-30T08:09:14;101069.62;;;20.15;68.82
63654;BME280;49809;47.418;19.080;2023-09-30T08:12:49;101076.47;;;20.81;65.84
63654;BME280;49809;47.418;19.080;2023-09-30T08:15:57;101071.47;;;20.88;65.70
63654;BME280;49809;47.418;19.080;2023-09-30T08:19:22;101079.41;;;21.20;64.80
63654;BME280;49809;47.418;19.080;2023-09-30T08:23:06;101079.44;;;20.93;62.89
63654;BME280;49809;47.418;19.080;2023-09-30T08:26:32;101077.03;;;21.05;63.65
63654;BME280;49809;47.418;19.080;2023-09-30T08:29:53;101075.88;;;20.84;64.13
63654;BME280;49809;47.418;19.080;2023-09-30T08:33:16;101066.69;;;20.99;64.47
63654;BME280;49809;47.418;19.080;2023-09-30T08:36:21;101067.00;;;20.83;64.65
63654;BME280;49809;47.418;19.080;2023-09-30T08:40:06;101063.41;;;21.38;63.46
63654;BME280;49809;47.418;19.080;2023-09-30T08:43:47;101068.09;;;20.42;65.98
63654;BME280;49809;47.418;19.080;2023-09-30T08:47:11;101059.63;;;20.75;65.13
63654;BME280;49809;47.418;19.080;2023-09-30T08:51:15;101049.34;;;21.41;63.66
63654;BME280;49809;47.418;19.080;2023-09-30T08:54:23;101053.34;;;21.43;63.32
63654;BME280;49809;47.418;19.080;2023-09-30T08:57:50;101057.13;;;22.48;61.01
63654;BME280;49809;47.418;19.080;2023-09-30T09:01:15;101052.03;;;23.29;56.88
63654;BME280;49809;47.418;19.080;2023-09-30T09:04:58;101035.69;;;23.60;55.13
63654;BME280;49809;47.418;19.080;2023-09-30T09:08:26;101036.13;;;23.79;54.46
63654;BME280;49809;47.418;19.080;2023-09-30T09:11:41;101034.03;;;23.94;55.25
63654;BME280;49809;47.418;19.080;2023-09-30T09:15:28;101040.47;;;24.86;52.26
63654;BME280;49809;47.418;19.080;2023-09-30T09:18:44;101033.28;;;24.31;52.47
63654;BME280;49809;47.418;19.080;2023-09-30T09:22:10;101033.63;;;24.30;52.55
63654;BME280;49809;47.418;19.080;2023-09-30T09:25:49;101037.69;;;24.44;53.49
63654;BME280;49809;47.418;19.080;2023-09-30T09:29:26;101038.03;;;23.79;53.88
63654;BME280;49809;47.418;19.080;2023-09-30T09:33:14;101040.16;;;23.56;53.82
63654;BME280;49809;47.418;19.080;2023-09-30T09:36:52;101035.69;;;23.60;53.92
63654;BME280;49809;47.418;19.080;2023-09-30T09:39:57;101021.56;;;23.55;54.51
63654;BME280;49809;47.418;19.080;2023-09-30T09:43:15;101035.38;;;23.19;54.86
63654;BME280;49809;47.418;19.080;2023-09-30T09:46:44;101024.88;;;23.69;54.85
63654;BME280;49809;47.418;19.080;2023-09-30T09:50:13;101023.91;;;22.70;56.43
63654;BME280;49809;47.418;19.080;2023-09-30T09:53:41;101027.47;;;22.57;58.46
63654;BME280;49809;47.418;19.080;2023-09-30T09:57:09;101029.06;;;22.67;57.01
63654;BME280;49809;47.418;19.080;2023-09-30T10:00:38;101027.91;;;23.42;55.76
63654;BME280;49809;47.418;19.080;2023-09-30T10:03:57;101020.09;;;22.88;56.48
63654;BME280;49809;47.418;19.080;2023-09-30T10:07:01;101023.91;;;22.87;56.92
63654;BME280;49809;47.418;19.080;2023-09-30T10:10:58;101024.25;;;22.94;56.86
63654;BME280;49809;47.418;19.080;2023-09-30T10:14:35;101025.66;;;23.01;55.79
63654;BME280;49809;47.418;19.080;2023-09-30T10:18:04;101019.91;;;22.76;57.07
63654;BME280;49809;47.418;19.080;2023-09-30T10:25:54;101015.50;;;23.32;55.28
63654;BME280;49809;47.418;19.080;2023-09-30T10:29:39;101007.25;;;23.46;54.15
63654;BME280;49809;47.418;19.080;2023-09-30T10:33:15;101007.09;;;23.42;54.09
63654;BME280;49809;47.418;19.080;2023-09-30T10:36:41;101005.66;;;23.27;55.30
63654;BME280;49809;47.418;19.080;2023-09-30T10:40:30;101004.22;;;23.30;55.58
63654;BME280;49809;47.418;19.080;2023-09-30T10:47:51;101009.41;;;23.78;55.74
63654;BME280;49809;47.418;19.080;2023-09-30T10:51:25;101001.22;;;23.49;55.49
63654;BME280;49809;47.418;19.080;2023-09-30T10:55:08;100997.75;;;23.95;53.91
63654;BME280;49809;47.418;19.080;2023-09-30T11:02:18;100994.38;;;23.51;56.05
63654;BME280;49809;47.418;19.080;2023-09-30T11:05:41;100990.75;;;23.47;55.37
63654;BME280;49809;47.418;19.080;2023-09-30T11:09:33;100988.00;;;23.64;56.02
63654;BME280;49809;47.418;19.080;2023-09-30T11:12:58;100988.63;;;23.44;56.58
63654;BME280;49809;47.418;19.080;2023-09-30T11:16:29;100985.94;;;23.10;56.88
63654;BME280;49809;47.418;19.080;2023-09-30T11:19:36;100989.47;;;22.84;58.19
63654;BME280;49809;47.418;19.080;2023-09-30T11:22:54;100984.69;;;22.81;58.72
63654;BME280;49809;47.418;19.080;2023-09-30T11:26:29;101005.69;;;22.36;60.55
63654;BME280;49809;47.418;19.080;2023-09-30T11:30:30;101006.69;;;22.09;61.04
63654;BME280;49809;47.418;19.080;2023-09-30T11:33:54;100996.91;;;21.91;62.42
63654;BME280;49809;47.418;19.080;2023-09-30T11:37:35;100996.75;;;21.65;66.84
63654;BME280;49809;47.418;19.080;2023-09-30T11:41:06;101008.22;;;21.49;65.83
63654;BME280;49809;47.418;19.080;2023-09-30T11:44:45;101013.50;;;21.54;63.00
63654;BME280;49809;47.418;19.080;2023-09-30T11:48:24;101010.28;;;21.52;63.12
63654;BME280;49809;47.418;19.080;2023-09-30T11:51:50;101007.25;;;21.76;62.96
63654;BME280;49809;47.418;19.080;2023-09-30T11:55:34;101010.34;;;21.60;63.40
63654;BME280;49809;47.418;19.080;2023-09-30T11:59:14;101004.47;;;21.58;64.24
63654;BME280;49809;47.418;19.080;2023-09-30T12:03:13;101007.13;;;21.81;63.94
63654;BME280;49809;47.418;19.080;2023-09-30T12:06:36;101002.28;;;21.91;64.19
63654;BME280;49809;47.418;19.080;2023-09-30T12:09:55;101001.44;;;21.82;65.09
63654;BME280;49809;47.418;19.080;2023-09-30T12:13:25;101002.72;;;21.54;67.66
63654;BME280;49809;47.418;19.080;2023-09-30T12:17:08;100999.09;;;21.58;68.03
63654;BME280;49809;47.418;19.080;2023-09-30T12:20:41;101000.88;;;21.63;68.55
63654;BME280;49809;47.418;19.080;2023-09-30T12:24:20;101005.63;;;21.66;68.93
63654;BME280;49809;47.418;19.080;2023-09-30T12:28:04;101006.13;;;21.46;70.05
63654;BME280;49809;47.418;19.080;2023-09-30T12:31:28;101007.25;;;21.09;72.37
63654;BME280;49809;47.418;19.080;2023-09-30T12:34:55;101005.03;;;21.11;73.09
63654;BME280;49809;47.418;19.080;2023-09-30T12:38:26;100998.12;;;20.82;73.52
63654;BME280;49809;47.418;19.080;2023-09-30T12:41:55;100998.84;;;20.74;74.04
63654;BME280;49809;47.418;19.080;2023-09-30T12:45:03;101003.47;;;20.60;74.50
63654;BME280;49809;47.418;19.080;2023-09-30T12:48:31;101005.75;;;20.67;74.05
63654;BME280;49809;47.418;19.080;2023-09-30T12:51:47;101006.53;;;20.67;73.60
63654;BME280;49809;47.418;19.080;2023-09-30T12:55:14;100998.84;;;20.74;73.35
63654;BME280;49809;47.418;19.080;2023-09-30T12:58:17;100998.38;;;20.59;74.16
63654;BME280;49809;47.418;19.080;2023-09-30T13:02:06;100999.34;;;20.76;73.27
63654;BME280;49809;47.418;19.080;2023-09-30T13:05:32;101014.50;;;20.59;73.54
63654;BME280;49809;47.418;19.080;2023-09-30T13:08:47;101014.97;;;20.88;72.59
63654;BME280;49809;47.418;19.080;2023-09-30T13:11:58;101001.03;;;20.86;72.86
63654;BME280;49809;47.418;19.080;2023-09-30T13:15:03;100992.56;;;20.79;73.15
63654;BME280;49809;47.418;19.080;2023-09-30T13:18:36;100997.06;;;20.70;73.32
63654;BME280;49809;47.418;19.080;2023-09-30T13:22:00;100999.78;;;20.56;74.28
63654;BME280;49809;47.418;19.080;2023-09-30T13:25:42;100991.19;;;20.81;73.42
63654;BME280;49809;47.418;19.080;2023-09-30T13:28:48;100989.00;;;20.70;74.27
63654;BME280;49809;47.418;19.080;2023-09-30T13:32:15;100986.84;;;20.94;73.66
63654;BME280;49809;47.418;19.080;2023-09-30T13:35:18;100973.75;;;21.15;72.64
63654;BME280;49809;47.418;19.080;2023-09-30T13:38:41;100976.81;;;21.22;72.28
63654;BME280;49809;47.418;19.080;2023-09-30T13:42:09;100979.87;;;21.29;71.84
63654;BME280;49809;47.418;19.080;2023-09-30T13:45:45;100977.00;;;21.48;71.37
63654;BME280;49809;47.418;19.080;2023-09-30T13:48:49;100978.78;;;21.83;69.53
63654;BME280;49809;47.418;19.080;2023-09-30T13:52:15;100974.19;;;22.15;67.65
63654;BME280;49809;47.418;19.080;2023-09-30T13:55:22;100974.03;;;22.11;68.28
63654;BME280;49809;47.418;19.080;2023-09-30T13:58:25;100977.97;;;22.14;68.96
63654;BME280;49809;47.418;19.080;2023-09-30T14:01:33;100955.13;;;22.76;66.76
63654;BME280;49809;47.418;19.080;2023-09-30T14:04:38;100947.03;;;23.11;66.59
63654;BME280;49809;47.418;19.080;2023-09-30T14:07:42;100956.25;;;23.10;65.83
63654;BME280;49809;47.418;19.080;2023-09-30T14:11:18;100963.50;;;22.49;65.47
63654;BME280;49809;47.418;19.080;2023-09-30T14:15:05;100960.66;;;22.54;66.75
63654;BME280;49809;47.418;19.080;2023-09-30T14:18:42;100954.28;;;22.50;66.39
63654;BME280;49809;47.418;19.080;2023-09-30T14:22:39;100952.25;;;22.07;68.09
63654;BME280;49809;47.418;19.080;2023-09-30T14:26:16;100958.78;;;21.84;69.46
63654;BME280;49809;47.418;19.080;2023-09-30T14:29:55;100959.94;;;21.83;69.18
63654;BME280;49809;47.418;19.080;2023-09-30T14:33:36;100954.44;;;21.66;69.56
63654;BME280;49809;47.418;19.080;2023-09-30T14:37:21;100949.16;;;21.61;71.04
63654;BME280;49809;47.418;19.080;2023-09-30T14:41:08;100949.44;;;21.51;71.30
63654;BME280;49809;47.418;19.080;2023-09-30T14:44:51;100948.91;;;21.71;70.81
63654;BME280;49809;47.418;19.080;2023-09-30T14:48:27;100940.44;;;21.86;71.04
63654;BME280;49809;47.418;19.080;2023-09-30T14:52:00;100945.56;;;21.96;69.58
63654;BME280;49809;47.418;19.080;2023-09-30T14:55:21;100939.47;;;21.82;70.96
63654;BME280;49809;47.418;19.080;2023-09-30T14:58:59;100943.34;;;21.98;70.62
63654;BME280;49809;47.418;19.080;2023-09-30T15:02:44;100941.09;;;21.61;71.31
63654;BME280;49809;47.418;19.080;2023-09-30T15:06:16;100939.50;;;21.60;71.76
63654;BME280;49809;47.418;19.080;2023-09-30T15:09:44;100932.56;;;21.37;72.79
63654;BME280;49809;47.418;19.080;2023-09-30T15:13:21;100934.63;;;21.40;72.98
63654;BME280;49809;47.418;19.080;2023-09-30T15:16:44;100942.09;;;21.43;72.26
63654;BME280;49809;47.418;19.080;2023-09-30T15:20:22;100944.50;;;21.22;73.36
63654;BME280;49809;47.418;19.080;2023-09-30T15:23:58;100950.81;;;21.17;73.84
63654;BME280;49809;47.418;19.080;2023-09-30T15:27:25;100944.44;;;21.13;73.97
63654;BME280;49809;47.418;19.080;2023-09-30T15:31:09;100940.25;;;21.07;74.69
63654;BME280;49809;47.418;19.080;2023-09-30T15:34:46;100942.19;;;20.93;75.47
63654;BME280;49809;47.418;19.080;2023-09-30T15:38:26;100944.53;;;20.86;76.05
63654;BME280;49809;47.418;19.080;2023-09-30T15:41:54;100943.50;;;20.82;75.66
63654;BME280;49809;47.418;19.080;2023-09-30T15:45:14;100946.75;;;20.70;75.78
63654;BME280;49809;47.418;19.080;2023-09-30T15:48:23;100944.09;;;20.57;76.27
63654;BME280;49809;47.418;19.080;2023-09-30T15:51:31;100939.81;;;20.56;76.21
63654;BME280;49809;47.418;19.080;2023-09-30T15:54:39;100945.78;;;20.53;76.34
63654;BME280;49809;47.418;19.080;2023-09-30T15:57:42;100945.78;;;20.53;76.73
63654;BME280;49809;47.418;19.080;2023-09-30T16:00:47;100954.97;;;20.52;76.63
63654;BME280;49809;47.418;19.080;2023-09-30T16:03:52;100946.19;;;20.46;77.53
63654;BME280;49809;47.418;19.080;2023-09-30T16:06:57;100952.78;;;20.40;77.73
63654;BME280;49809;47.418;19.080;2023-09-30T16:10:43;100942.00;;;20.26;78.46
63654;BME280;49809;47.418;19.080;2023-09-30T16:14:15;100936.22;;;20.19;78.81
63654;BME280;49809;47.418;19.080;2023-09-30T16:17:56;100941.41;;;20.16;79.26
63654;BME280;49809;47.418;19.080;2023-09-30T16:21:32;100947.97;;;19.96;80.30
63654;BME280;49809;47.418;19.080;2023-09-30T16:25:07;100956.44;;;19.89;80.77
63654;BME280;49809;47.418;19.080;2023-09-30T16:28:42;100963.47;;;19.85;81.12
63654;BME280;49809;47.418;19.080;2023-09-30T16:32:17;100962.37;;;19.73;82.16
63654;BME280;49809;47.418;19.080;2023-09-30T16:35:54;100954.56;;;19.58;82.67
63654;BME280;49809;47.418;19.080;2023-09-30T16:39:32;100960.62;;;19.49;83.83
63654;BME280;49809;47.418;19.080;2023-09-30T16:42:52;100966.22;;;19.34;84.89
63654;BME280;49809;47.418;19.080;2023-09-30T16:46:26;100971.22;;;19.22;85.83
63654;BME280;49809;47.418;19.080;2023-09-30T16:50:03;100968.06;;;19.20;86.10
63654;BME280;49809;47.418;19.080;2023-09-30T16:53:24;100966.88;;;19.07;87.19
63654;BME280;49809;47.418;19.080;2023-09-30T16:57:14;100968.94;;;18.97;88.16
63654;BME280;49809;47.418;19.080;2023-09-30T17:00:46;100974.16;;;19.07;87.46
63654;BME280;49809;47.418;19.080;2023-09-30T17:04:14;100976.13;;;19.01;87.91
63654;BME280;49809;47.418;19.080;2023-09-30T17:07:51;100967.06;;;18.97;88.46
63654;BME280;49809;47.418;19.080;2023-09-30T17:11:10;100971.53;;;18.83;89.26
63654;BME280;49809;47.418;19.080;2023-09-30T17:15:02;100971.38;;;18.75;89.86
63654;BME280;49809;47.418;19.080;2023-09-30T17:18:43;100977.13;;;18.68;90.17
63654;BME280;49809;47.418;19.080;2023-09-30T17:22:19;100983.34;;;18.63;90.53
63654;BME280;49809;47.418;19.080;2023-09-30T17:29:58;100987.28;;;18.47;91.89
63654;BME280;49809;47.418;19.080;2023-09-30T17:33:27;100992.63;;;18.47;91.72
63654;BME280;49809;47.418;19.080;2023-09-30T17:36:57;100985.66;;;18.46;91.72
63654;BME280;49809;47.418;19.080;2023-09-30T17:40:34;100990.00;;;18.42;92.03
63654;BME280;49809;47.418;19.080;2023-09-30T17:44:26;100987.59;;;18.41;91.73
63654;BME280;49809;47.418;19.080;2023-09-30T17:47:53;100989.31;;;18.32;92.19
63654;BME280;49809;47.418;19.080;2023-09-30T17:51:22;100986.94;;;18.30;91.97
63654;BME280;49809;47.418;19.080;2023-09-30T17:55:04;100987.16;;;18.34;91.60
63654;BME280;49809;47.418;19.080;2023-09-30T17:58:31;101001.97;;;18.26;91.85
63654;BME280;49809;47.418;19.080;2023-09-30T18:01:48;101000.38;;;18.25;91.94
63654;BME280;49809;47.418;19.080;2023-09-30T18:04:51;101004.59;;;18.31;91.41
63654;BME280;49809;47.418;19.080;2023-09-30T18:08:15;101003.59;;;18.27;91.31